Old Willapa, Washington
Current Conditions -  °F | °C
As of 10:17 AM on Sunday 21 Dec 2014 (Local Time) from KHQM Reporting Station
Haze Haze  
Wind Chill: 53°   Ceiling: Unl
Heat Index: 53°   Visibility: 4mi
Dew Point: 50°   Wind: 13mph
Humidity: 89%   Direction: 240°WSW
Pressure: 29.98"   Gusts: NA
Location:  46.6563°N, 123.58°W
Report Text: KHQM 211817Z AUTO 24011KT 4SM BR FEW020 SCT026 SCT041 12/10 A2998 RMK AO2 T01170100
Loading
Personal Weather Stations






























Interactive Weather Map New forecast layout! Learn more

10-Day Weather Forecast

Advertisements
Track Severe Weather on mobile